sensor_id;sensor_type;location;lat;lon;timestamp;temperature;humidity
19930;DHT22;10127;47.780;9.606;2023-04-01T00:01:25;9.40;99.90
19930;DHT22;10127;47.780;9.606;2023-04-01T00:03:51;9.30;99.90
19930;DHT22;10127;47.780;9.606;2023-04-01T00:06:18;9.20;99.90
19930;DHT22;10127;47.780;9.606;2023-04-01T00:08:44;9.20;99.90
19930;DHT22;10127;47.780;9.606;2023-04-01T00:11:10;9.30;99.90
19930;DHT22;10127;47.780;9.606;2023-04-01T00:13:36;9.20;99.90
19930;DHT22;10127;47.780;9.606;2023-04-01T00:16:02;9.10;99.90
19930;DHT22;10127;47.780;9.606;2023-04-01T00:18:34;9.00;99.90
19930;DHT22;10127;47.780;9.606;2023-04-01T00:20:59;9.00;99.90
19930;DHT22;10127;47.780;9.606;2023-04-01T00:23:25;8.90;99.90
19930;DHT22;10127;47.780;9.606;2023-04-01T00:25:51;8.90;99.90
19930;DHT22;10127;47.780;9.606;2023-04-01T00:28:18;8.90;99.90
19930;DHT22;10127;47.780;9.606;2023-04-01T00:30:43;8.80;99.90
19930;DHT22;10127;47.780;9.606;2023-04-01T00:33:09;8.80;99.90
19930;DHT22;10127;47.780;9.606;2023-04-01T00:35:35;8.90;99.90
19930;DHT22;10127;47.780;9.606;2023-04-01T00:38:02;8.90;99.90
19930;DHT22;10127;47.780;9.606;2023-04-01T00:40:35;8.80;99.90
19930;DHT22;10127;47.780;9.606;2023-04-01T00:43:02;8.90;99.90
19930;DHT22;10127;47.780;9.606;2023-04-01T00:45:40;8.90;99.90
19930;DHT22;10127;47.780;9.606;2023-04-01T00:48:22;9.00;99.90
19930;DHT22;10127;47.780;9.606;2023-04-01T00:50:59;8.90;99.90
19930;DHT22;10127;47.780;9.606;2023-04-01T00:53:28;8.90;99.90
19930;DHT22;10127;47.780;9.606;2023-04-01T00:56:17;8.80;99.90
19930;DHT22;10127;47.780;9.606;2023-04-01T00:58:47;8.80;99.90
19930;DHT22;10127;47.780;9.606;2023-04-01T01:01:14;8.60;99.90
19930;DHT22;10127;47.780;9.606;2023-04-01T01:03:40;8.40;99.90
19930;DHT22;10127;47.780;9.606;2023-04-01T01:12:00;8.20;99.90
19930;DHT22;10127;47.780;9.606;2023-04-01T01:14:35;8.00;99.90
19930;DHT22;10127;47.780;9.606;2023-04-01T01:17:14;7.90;99.90
19930;DHT22;10127;47.780;9.606;2023-04-01T01:28:44;7.50;99.90
19930;DHT22;10127;47.780;9.606;2023-04-01T01:36:19;7.60;99.90
19930;DHT22;10127;47.780;9.606;2023-04-01T01:38:48;7.60;99.90
19930;DHT22;10127;47.780;9.606;2023-04-01T01:41:16;7.70;99.90
19930;DHT22;10127;47.780;9.606;2023-04-01T01:43:46;7.60;99.90
19930;DHT22;10127;47.780;9.606;2023-04-01T01:46:16;7.70;99.90
19930;DHT22;10127;47.780;9.606;2023-04-01T01:48:43;7.70;99.90
19930;DHT22;10127;47.780;9.606;2023-04-01T01:51:10;7.80;99.90
19930;DHT22;10127;47.780;9.606;2023-04-01T01:53:36;7.80;99.90
19930;DHT22;10127;47.780;9.606;2023-04-01T01:56:02;7.70;99.90
19930;DHT22;10127;47.780;9.606;2023-04-01T01:58:32;7.70;99.90
19930;DHT22;10127;47.780;9.606;2023-04-01T02:01:07;7.70;99.90
19930;DHT22;10127;47.780;9.606;2023-04-01T02:03:36;7.80;99.90
19930;DHT22;10127;47.780;9.606;2023-04-01T02:06:05;7.80;99.90
19930;DHT22;10127;47.780;9.606;2023-04-01T02:08:47;7.90;99.90
19930;DHT22;10127;47.780;9.606;2023-04-01T02:11:27;8.00;99.90
19930;DHT22;10127;47.780;9.606;2023-04-01T02:14:34;8.00;99.90
19930;DHT22;10127;47.780;9.606;2023-04-01T02:16:59;8.00;99.90
19930;DHT22;10127;47.780;9.606;2023-04-01T02:19:36;8.00;99.90
19930;DHT22;10127;47.780;9.606;2023-04-01T02:22:05;7.90;99.90
19930;DHT22;10127;47.780;9.606;2023-04-01T02:24:33;8.00;99.90
19930;DHT22;10127;47.780;9.606;2023-04-01T02:27:01;8.00;99.90
19930;DHT22;10127;47.780;9.606;2023-04-01T02:29:27;8.00;99.90
19930;DHT22;10127;47.780;9.606;2023-04-01T02:31:53;8.10;99.90
19930;DHT22;10127;47.780;9.606;2023-04-01T02:34:21;8.00;99.90
19930;DHT22;10127;47.780;9.606;2023-04-01T02:36:49;8.00;99.90
19930;DHT22;10127;47.780;9.606;2023-04-01T02:39:15;8.00;99.90
19930;DHT22;10127;47.780;9.606;2023-04-01T02:41:43;8.00;99.90
19930;DHT22;10127;47.780;9.606;2023-04-01T02:44:10;8.00;99.90
19930;DHT22;10127;47.780;9.606;2023-04-01T02:46:36;8.00;99.90
19930;DHT22;10127;47.780;9.606;2023-04-01T02:49:02;8.00;99.90
19930;DHT22;10127;47.780;9.606;2023-04-01T03:12:05;7.90;99.90
19930;DHT22;10127;47.780;9.606;2023-04-01T03:14:31;7.90;99.90
19930;DHT22;10127;47.780;9.606;2023-04-01T03:16:57;8.00;99.90
19930;DHT22;10127;47.780;9.606;2023-04-01T03:19:22;8.00;99.90
19930;DHT22;10127;47.780;9.606;2023-04-01T03:21:48;7.90;99.90
19930;DHT22;10127;47.780;9.606;2023-04-01T03:24:13;8.00;99.90
19930;DHT22;10127;47.780;9.606;2023-04-01T03:26:39;8.10;99.90
19930;DHT22;10127;47.780;9.606;2023-04-01T03:29:04;8.10;99.90
19930;DHT22;10127;47.780;9.606;2023-04-01T03:31:30;8.20;99.90
19930;DHT22;10127;47.780;9.606;2023-04-01T03:33:56;8.10;99.90
19930;DHT22;10127;47.780;9.606;2023-04-01T03:36:21;8.30;99.90
19930;DHT22;10127;47.780;9.606;2023-04-01T03:38:47;8.20;99.90
19930;DHT22;10127;47.780;9.606;2023-04-01T03:41:14;8.30;99.90
19930;DHT22;10127;47.780;9.606;2023-04-01T03:43:41;8.30;99.90
19930;DHT22;10127;47.780;9.606;2023-04-01T03:46:06;8.30;99.90
19930;DHT22;10127;47.780;9.606;2023-04-01T03:48:32;8.30;99.90
19930;DHT22;10127;47.780;9.606;2023-04-01T03:50:58;8.30;99.90
19930;DHT22;10127;47.780;9.606;2023-04-01T03:53:23;8.30;99.90
19930;DHT22;10127;47.780;9.606;2023-04-01T03:55:50;8.30;99.90
19930;DHT22;10127;47.780;9.606;2023-04-01T03:58:17;8.20;99.90
19930;DHT22;10127;47.780;9.606;2023-04-01T04:00:42;8.20;99.90
19930;DHT22;10127;47.780;9.606;2023-04-01T04:03:08;8.10;99.90
19930;DHT22;10127;47.780;9.606;2023-04-01T04:05:34;8.20;99.90
19930;DHT22;10127;47.780;9.606;2023-04-01T04:07:59;8.20;99.90
19930;DHT22;10127;47.780;9.606;2023-04-01T04:10:25;8.10;99.90
19930;DHT22;10127;47.780;9.606;2023-04-01T04:12:51;8.10;99.90
19930;DHT22;10127;47.780;9.606;2023-04-01T04:15:17;8.20;99.90
19930;DHT22;10127;47.780;9.606;2023-04-01T04:17:44;8.20;99.90
19930;DHT22;10127;47.780;9.606;2023-04-01T04:20:10;8.20;99.90
19930;DHT22;10127;47.780;9.606;2023-04-01T04:22:36;8.30;99.90
19930;DHT22;10127;47.780;9.606;2023-04-01T04:25:01;8.30;99.90
19930;DHT22;10127;47.780;9.606;2023-04-01T04:27:27;8.30;99.90
19930;DHT22;10127;47.780;9.606;2023-04-01T04:29:52;8.30;99.90
19930;DHT22;10127;47.780;9.606;2023-04-01T04:32:18;8.20;99.90
19930;DHT22;10127;47.780;9.606;2023-04-01T04:34:44;8.30;99.90
19930;DHT22;10127;47.780;9.606;2023-04-01T04:37:09;8.30;99.90
19930;DHT22;10127;47.780;9.606;2023-04-01T04:39:35;8.30;99.90
19930;DHT22;10127;47.780;9.606;2023-04-01T04:42:00;8.30;99.90
19930;DHT22;10127;47.780;9.606;2023-04-01T04:44:26;8.30;99.90
19930;DHT22;10127;47.780;9.606;2023-04-01T04:46:52;8.30;99.90
19930;DHT22;10127;47.780;9.606;2023-04-01T04:49:17;8.30;99.90
19930;DHT22;10127;47.780;9.606;2023-04-01T04:51:43;8.30;99.90
19930;DHT22;10127;47.780;9.606;2023-04-01T04:54:09;8.20;99.90
19930;DHT22;10127;47.780;9.606;2023-04-01T04:56:35;8.20;99.90
19930;DHT22;10127;47.780;9.606;2023-04-01T04:59:01;8.20;99.90
19930;DHT22;10127;47.780;9.606;2023-04-01T05:01:27;8.20;99.90
19930;DHT22;10127;47.780;9.606;2023-04-01T05:03:52;8.20;99.90
19930;DHT22;10127;47.780;9.606;2023-04-01T05:06:18;8.30;99.90
19930;DHT22;10127;47.780;9.606;2023-04-01T05:08:45;8.30;99.90
19930;DHT22;10127;47.780;9.606;2023-04-01T05:11:16;8.40;99.90
19930;DHT22;10127;47.780;9.606;2023-04-01T05:13:43;8.40;99.90
19930;DHT22;10127;47.780;9.606;2023-04-01T05:16:15;8.40;99.90
19930;DHT22;10127;47.780;9.606;2023-04-01T05:18:41;8.40;99.90
19930;DHT22;10127;47.780;9.606;2023-04-01T05:21:08;8.50;99.90
19930;DHT22;10127;47.780;9.606;2023-04-01T05:23:34;8.50;99.90
19930;DHT22;10127;47.780;9.606;2023-04-01T05:26:09;8.50;99.90
19930;DHT22;10127;47.780;9.606;2023-04-01T05:28:34;8.50;99.90
19930;DHT22;10127;47.780;9.606;2023-04-01T05:31:04;8.40;99.90
19930;DHT22;10127;47.780;9.606;2023-04-01T05:33:30;8.40;99.90
19930;DHT22;10127;47.780;9.606;2023-04-01T05:35:56;8.40;99.90
19930;DHT22;10127;47.780;9.606;2023-04-01T05:38:22;8.30;99.90
19930;DHT22;10127;47.780;9.606;2023-04-01T05:40:47;8.30;99.90
19930;DHT22;10127;47.780;9.606;2023-04-01T05:43:13;8.20;99.90
19930;DHT22;10127;47.780;9.606;2023-04-01T05:45:39;8.30;99.90
19930;DHT22;10127;47.780;9.606;2023-04-01T05:48:04;8.30;99.90
19930;DHT22;10127;47.780;9.606;2023-04-01T05:50:30;8.30;99.90
19930;DHT22;10127;47.780;9.606;2023-04-01T05:52:56;8.30;99.90
19930;DHT22;10127;47.780;9.606;2023-04-01T05:55:22;8.40;99.90
19930;DHT22;10127;47.780;9.606;2023-04-01T05:57:48;8.30;99.90
19930;DHT22;10127;47.780;9.606;2023-04-01T06:00:15;8.30;99.90
19930;DHT22;10127;47.780;9.606;2023-04-01T06:02:41;8.20;99.90
19930;DHT22;10127;47.780;9.606;2023-04-01T06:07:45;8.30;99.90
19930;DHT22;10127;47.780;9.606;2023-04-01T06:10:18;8.40;99.90
19930;DHT22;10127;47.780;9.606;2023-04-01T06:15:38;8.40;99.90
19930;DHT22;10127;47.780;9.606;2023-04-01T06:20:59;8.60;99.90
19930;DHT22;10127;47.780;9.606;2023-04-01T06:23:47;8.60;99.90
19930;DHT22;10127;47.780;9.606;2023-04-01T06:29:19;8.80;99.90
19930;DHT22;10127;47.780;9.606;2023-04-01T06:44:56;9.10;99.90
19930;DHT22;10127;47.780;9.606;2023-04-01T06:58:20;9.10;99.90
19930;DHT22;10127;47.780;9.606;2023-04-01T07:00:51;9.30;99.90
19930;DHT22;10127;47.780;9.606;2023-04-01T07:05:46;9.50;99.90
19930;DHT22;10127;47.780;9.606;2023-04-01T07:08:17;9.60;99.90
19930;DHT22;10127;47.780;9.606;2023-04-01T07:19:20;10.00;99.90
19930;DHT22;10127;47.780;9.606;2023-04-01T07:21:58;10.10;99.90
19930;DHT22;10127;47.780;9.606;2023-04-01T07:24:29;10.30;99.90
19930;DHT22;10127;47.780;9.606;2023-04-01T07:26:57;10.40;99.90
19930;DHT22;10127;47.780;9.606;2023-04-01T07:29:23;10.40;99.90
19930;DHT22;10127;47.780;9.606;2023-04-01T07:50:50;11.10;99.90
19930;DHT22;10127;47.780;9.606;2023-04-01T07:56:05;11.10;99.90
19930;DHT22;10127;47.780;9.606;2023-04-01T08:01:36;10.70;99.90
19930;DHT22;10127;47.780;9.606;2023-04-01T08:06:39;10.70;99.90
19930;DHT22;10127;47.780;9.606;2023-04-01T08:09:17;10.70;99.90
19930;DHT22;10127;47.780;9.606;2023-04-01T08:20:18;10.90;99.90
19930;DHT22;10127;47.780;9.606;2023-04-01T08:25:32;10.90;99.90
19930;DHT22;10127;47.780;9.606;2023-04-01T08:28:22;11.00;99.90
19930;DHT22;10127;47.780;9.606;2023-04-01T08:31:12;11.10;99.90
19930;DHT22;10127;47.780;9.606;2023-04-01T08:33:40;11.10;99.90
19930;DHT22;10127;47.780;9.606;2023-04-01T08:36:20;11.20;99.90
19930;DHT22;10127;47.780;9.606;2023-04-01T08:38:54;11.30;99.90
19930;DHT22;10127;47.780;9.606;2023-04-01T08:47:19;10.90;99.90
19930;DHT22;10127;47.780;9.606;2023-04-01T09:05:22;10.90;99.90
19930;DHT22;10127;47.780;9.606;2023-04-01T09:08:20;10.90;99.90
19930;DHT22;10127;47.780;9.606;2023-04-01T09:10:55;10.70;99.90
19930;DHT22;10127;47.780;9.606;2023-04-01T09:13:54;10.60;99.90
19930;DHT22;10127;47.780;9.606;2023-04-01T09:21:46;10.60;99.90
19930;DHT22;10127;47.780;9.606;2023-04-01T09:24:42;10.50;99.90
19930;DHT22;10127;47.780;9.606;2023-04-01T09:27:26;10.40;99.90
19930;DHT22;10127;47.780;9.606;2023-04-01T09:39:12;10.20;99.90
19930;DHT22;10127;47.780;9.606;2023-04-01T09:44:48;10.00;99.90
19930;DHT22;10127;47.780;9.606;2023-04-01T09:50:31;9.70;99.90
19930;DHT22;10127;47.780;9.606;2023-04-01T10:15:29;9.90;99.90
19930;DHT22;10127;47.780;9.606;2023-04-01T10:23:53;10.00;99.90
19930;DHT22;10127;47.780;9.606;2023-04-01T10:56:42;10.40;99.90
19930;DHT22;10127;47.780;9.606;2023-04-01T11:06:18;10.60;99.90
19930;DHT22;10127;47.780;9.606;2023-04-01T11:17:19;10.60;99.90
19930;DHT22;10127;47.780;9.606;2023-04-01T11:30:56;10.30;99.90
19930;DHT22;10127;47.780;9.606;2023-04-01T11:33:39;10.30;99.90
19930;DHT22;10127;47.780;9.606;2023-04-01T11:36:35;10.20;99.90
19930;DHT22;10127;47.780;9.606;2023-04-01T11:42:10;10.20;99.90
19930;DHT22;10127;47.780;9.606;2023-04-01T11:44:54;10.30;99.90
19930;DHT22;10127;47.780;9.606;2023-04-01T11:47:42;10.30;99.90
19930;DHT22;10127;47.780;9.606;2023-04-01T11:55:28;10.60;99.90
19930;DHT22;10127;47.780;9.606;2023-04-01T12:00:53;11.00;99.90
19930;DHT22;10127;47.780;9.606;2023-04-01T12:03:55;11.10;99.90
19930;DHT22;10127;47.780;9.606;2023-04-01T12:09:18;11.00;99.90
19930;DHT22;10127;47.780;9.606;2023-04-01T12:14:30;11.10;99.90
19930;DHT22;10127;47.780;9.606;2023-04-01T12:20:34;11.10;99.90
19930;DHT22;10127;47.780;9.606;2023-04-01T12:28:29;11.10;99.90
19930;DHT22;10127;47.780;9.606;2023-04-01T12:39:51;11.40;99.90
19930;DHT22;10127;47.780;9.606;2023-04-01T12:42:51;11.40;99.90
19930;DHT22;10127;47.780;9.606;2023-04-01T12:45:35;11.20;99.90
19930;DHT22;10127;47.780;9.606;2023-04-01T12:48:25;11.30;99.90
19930;DHT22;10127;47.780;9.606;2023-04-01T13:27:56;12.20;99.90
19930;DHT22;10127;47.780;9.606;2023-04-01T13:30:33;11.90;99.90
19930;DHT22;10127;47.780;9.606;2023-04-01T13:43:43;11.90;99.90
19930;DHT22;10127;47.780;9.606;2023-04-01T13:46:47;11.70;99.90
19930;DHT22;10127;47.780;9.606;2023-04-01T13:52:13;11.40;99.90
19930;DHT22;10127;47.780;9.606;2023-04-01T13:54:56;11.20;99.90
19930;DHT22;10127;47.780;9.606;2023-04-01T13:57:52;11.40;99.90
19930;DHT22;10127;47.780;9.606;2023-04-01T14:06:05;11.10;99.90
19930;DHT22;10127;47.780;9.606;2023-04-01T14:19:51;11.00;99.90
19930;DHT22;10127;47.780;9.606;2023-04-01T14:30:25;11.10;99.90
19930;DHT22;10127;47.780;9.606;2023-04-01T14:33:12;11.10;99.90
19930;DHT22;10127;47.780;9.606;2023-04-01T14:44:19;11.10;99.90
19930;DHT22;10127;47.780;9.606;2023-04-01T14:47:22;11.20;99.90
19930;DHT22;10127;47.780;9.606;2023-04-01T14:49:53;11.20;99.90
19930;DHT22;10127;47.780;9.606;2023-04-01T14:52:28;11.20;99.90
19930;DHT22;10127;47.780;9.606;2023-04-01T14:54:56;11.20;99.90
19930;DHT22;10127;47.780;9.606;2023-04-01T14:57:29;11.20;99.90
19930;DHT22;10127;47.780;9.606;2023-04-01T15:00:09;11.20;99.90
19930;DHT22;10127;47.780;9.606;2023-04-01T15:05:38;11.20;99.90
19930;DHT22;10127;47.780;9.606;2023-04-01T15:16:13;11.10;99.90
19930;DHT22;10127;47.780;9.606;2023-04-01T15:22:16;11.10;99.90
19930;DHT22;10127;47.780;9.606;2023-04-01T15:25:04;11.10;99.90
19930;DHT22;10127;47.780;9.606;2023-04-01T15:30:50;11.00;99.90
19930;DHT22;10127;47.780;9.606;2023-04-01T15:38:36;10.20;99.90
19930;DHT22;10127;47.780;9.606;2023-04-01T15:41:24;10.20;99.90
19930;DHT22;10127;47.780;9.606;2023-04-01T15:43:54;10.40;99.90
19930;DHT22;10127;47.780;9.606;2023-04-01T15:46:41;10.40;99.90
19930;DHT22;10127;47.780;9.606;2023-04-01T16:03:02;10.70;99.90
19930;DHT22;10127;47.780;9.606;2023-04-01T16:09:22;10.70;99.90
19930;DHT22;10127;47.780;9.606;2023-04-01T16:12:15;10.70;99.90
19930;DHT22;10127;47.780;9.606;2023-04-01T16:14:47;10.60;99.90
19930;DHT22;10127;47.780;9.606;2023-04-01T16:22:37;10.60;99.90
19930;DHT22;10127;47.780;9.606;2023-04-01T16:30:45;10.50;99.90
19930;DHT22;10127;47.780;9.606;2023-04-01T16:36:05;10.40;99.90
19930;DHT22;10127;47.780;9.606;2023-04-01T16:38:38;10.40;99.90
19930;DHT22;10127;47.780;9.606;2023-04-01T16:41:16;10.30;99.90
19930;DHT22;10127;47.780;9.606;2023-04-01T16:43:45;10.20;99.90
19930;DHT22;10127;47.780;9.606;2023-04-01T16:46:40;10.20;99.90
19930;DHT22;10127;47.780;9.606;2023-04-01T16:57:37;10.10;99.90
19930;DHT22;10127;47.780;9.606;2023-04-01T17:00:28;10.00;99.90
19930;DHT22;10127;47.780;9.606;2023-04-01T17:03:20;10.00;99.90
19930;DHT22;10127;47.780;9.606;2023-04-01T17:11:28;9.90;99.90
19930;DHT22;10127;47.780;9.606;2023-04-01T17:19:14;9.90;99.90
19930;DHT22;10127;47.780;9.606;2023-04-01T17:22:02;9.90;99.90
19930;DHT22;10127;47.780;9.606;2023-04-01T17:33:17;9.70;99.90
19930;DHT22;10127;47.780;9.606;2023-04-01T17:41:28;9.70;99.90
19930;DHT22;10127;47.780;9.606;2023-04-01T17:46:59;9.60;99.90
19930;DHT22;10127;47.780;9.606;2023-04-01T17:49:33;9.60;99.90
19930;DHT22;10127;47.780;9.606;2023-04-01T17:55:14;9.50;99.90
19930;DHT22;10127;47.780;9.606;2023-04-01T17:58:03;9.40;99.90
19930;DHT22;10127;47.780;9.606;2023-04-01T18:00:38;9.40;99.90
19930;DHT22;10127;47.780;9.606;2023-04-01T18:09:01;9.30;99.90
19930;DHT22;10127;47.780;9.606;2023-04-01T18:14:58;9.30;99.90
19930;DHT22;10127;47.780;9.606;2023-04-01T18:22:47;9.20;99.90
19930;DHT22;10127;47.780;9.606;2023-04-01T18:25:37;9.20;99.90
19930;DHT22;10127;47.780;9.606;2023-04-01T18:28:22;9.20;99.90
19930;DHT22;10127;47.780;9.606;2023-04-01T18:31:07;9.20;99.90
19930;DHT22;10127;47.780;9.606;2023-04-01T18:33:46;9.20;99.90
19930;DHT22;10127;47.780;9.606;2023-04-01T18:38:57;9.10;99.90
19930;DHT22;10127;47.780;9.606;2023-04-01T18:44:57;9.00;99.90
19930;DHT22;10127;47.780;9.606;2023-04-01T18:48:06;9.00;99.90
19930;DHT22;10127;47.780;9.606;2023-04-01T18:50:50;8.90;99.90
19930;DHT22;10127;47.780;9.606;2023-04-01T18:53:38;9.00;99.90
19930;DHT22;10127;47.780;9.606;2023-04-01T18:56:24;8.90;99.90
19930;DHT22;10127;47.780;9.606;2023-04-01T19:04:36;8.90;99.90
19930;DHT22;10127;47.780;9.606;2023-04-01T19:09:50;8.90;99.90
19930;DHT22;10127;47.780;9.606;2023-04-01T19:12:23;8.80;99.90
19930;DHT22;10127;47.780;9.606;2023-04-01T19:20:41;8.80;99.90
19930;DHT22;10127;47.780;9.606;2023-04-01T19:26:00;8.80;99.90
19930;DHT22;10127;47.780;9.606;2023-04-01T19:31:44;8.80;99.90
19930;DHT22;10127;47.780;9.606;2023-04-01T19:36:52;8.80;99.90
19930;DHT22;10127;47.780;9.606;2023-04-01T19:39:46;8.70;99.90
19930;DHT22;10127;47.780;9.606;2023-04-01T19:42:24;8.70;99.90
19930;DHT22;10127;47.780;9.606;2023-04-01T19:51:25;8.60;99.90
19930;DHT22;10127;47.780;9.606;2023-04-01T19:56:47;8.50;99.90
19930;DHT22;10127;47.780;9.606;2023-04-01T20:04:48;8.40;99.90
19930;DHT22;10127;47.780;9.606;2023-04-01T20:15:39;8.40;99.90
19930;DHT22;10127;47.780;9.606;2023-04-01T20:20:55;8.40;99.90
19930;DHT22;10127;47.780;9.606;2023-04-01T20:23:41;8.40;99.90
19930;DHT22;10127;47.780;9.606;2023-04-01T20:26:20;8.30;99.90
19930;DHT22;10127;47.780;9.606;2023-04-01T20:29:18;8.30;99.90
19930;DHT22;10127;47.780;9.606;2023-04-01T20:37:46;8.30;99.90
19930;DHT22;10127;47.780;9.606;2023-04-01T20:40:37;8.30;99.90
19930;DHT22;10127;47.780;9.606;2023-04-01T20:48:52;8.50;99.90
19930;DHT22;10127;47.780;9.606;2023-04-01T20:51:24;8.40;99.90
19930;DHT22;10127;47.780;9.606;2023-04-01T20:54:26;8.40;99.90
19930;DHT22;10127;47.780;9.606;2023-04-01T20:56:58;8.30;99.90
19930;DHT22;10127;47.780;9.606;2023-04-01T20:59:51;8.30;99.90
19930;DHT22;10127;47.780;9.606;2023-04-01T21:02:29;8.20;99.90
19930;DHT22;10127;47.780;9.606;2023-04-01T21:05:30;8.20;99.90
19930;DHT22;10127;47.780;9.606;2023-04-01T21:11:18;8.10;99.90
19930;DHT22;10127;47.780;9.606;2023-04-01T21:16:52;8.10;99.90
19930;DHT22;10127;47.780;9.606;2023-04-01T21:39:42;7.80;99.90
19930;DHT22;10127;47.780;9.606;2023-04-01T21:42:57;7.80;99.90
19930;DHT22;10127;47.780;9.606;2023-04-01T21:50:42;7.80;99.90
19930;DHT22;10127;47.780;9.606;2023-04-01T21:59:16;7.60;99.90
19930;DHT22;10127;47.780;9.606;2023-04-01T22:02:21;7.60;99.90
19930;DHT22;10127;47.780;9.606;2023-04-01T22:05:24;7.50;99.90
19930;DHT22;10127;47.780;9.606;2023-04-01T22:08:21;7.60;99.90
19930;DHT22;10127;47.780;9.606;2023-04-01T22:11:04;7.60;99.90
19930;DHT22;10127;47.780;9.606;2023-04-01T22:13:41;7.60;99.90
19930;DHT22;10127;47.780;9.606;2023-04-01T22:21:55;7.60;99.90
19930;DHT22;10127;47.780;9.606;2023-04-01T22:24:41;7.60;99.90
19930;DHT22;10127;47.780;9.606;2023-04-01T22:32:50;7.50;99.90
19930;DHT22;10127;47.780;9.606;2023-04-01T22:38:20;7.40;99.90
19930;DHT22;10127;47.780;9.606;2023-04-01T22:43:34;7.50;99.90
19930;DHT22;10127;47.780;9.606;2023-04-01T22:51:18;7.40;99.90
19930;DHT22;10127;47.780;9.606;2023-04-01T22:54:03;7.40;99.90
19930;DHT22;10127;47.780;9.606;2023-04-01T22:56:38;7.40;99.90
19930;DHT22;10127;47.780;9.606;2023-04-01T22:59:24;7.40;99.90
19930;DHT22;10127;47.780;9.606;2023-04-01T23:01:57;7.30;99.90
19930;DHT22;10127;47.780;9.606;2023-04-01T23:04:31;7.20;99.90
19930;DHT22;10127;47.780;9.606;2023-04-01T23:07:04;7.10;99.90
19930;DHT22;10127;47.780;9.606;2023-04-01T23:09:33;7.10;99.90
19930;DHT22;10127;47.780;9.606;2023-04-01T23:12:03;7.00;99.90
19930;DHT22;10127;47.780;9.606;2023-04-01T23:33:11;6.70;99.90
19930;DHT22;10127;47.780;9.606;2023-04-01T23:35:56;6.60;99.90
19930;DHT22;10127;47.780;9.606;2023-04-01T23:38:36;6.60;99.90
19930;DHT22;10127;47.780;9.606;2023-04-01T23:41:04;6.50;99.90
19930;DHT22;10127;47.780;9.606;2023-04-01T23:43:37;6.50;99.90
19930;DHT22;10127;47.780;9.606;2023-04-01T23:46:06;6.50;99.90
19930;DHT22;10127;47.780;9.606;2023-04-01T23:48:51;6.50;99.90
19930;DHT22;10127;47.780;9.606;2023-04-01T23:51:26;6.40;99.90
19930;DHT22;10127;47.780;9.606;2023-04-01T23:54:04;6.40;99.90
19930;DHT22;10127;47.780;9.606;2023-04-01T23:56:46;6.40;99.90
19930;DHT22;10127;47.780;9.606;2023-04-01T23:59:18;6.40;99.90
